Time;durP1;ratioP1;P1;durP2;ratioP2;P2;SDS_P1;SDS_P2;PMS_P1;PMS_P2;Temp;Humidity;BMP_temperature;BMP_pressure;BME280_temperature;BME280_humidity;BME280_pressure;Samples;Min_cycle;Max_cycle;Signal;HPM_P1;HPM_P2
2024/01/10 00:01:27;;;;;;;14.40;3.58;;;;;;;3.20;90.73;102765.25;5038860;28;20052;-50
2024/01/10 00:03:54;;;;;;;9.73;2.35;;;;;;;3.19;91.18;102760.00;5055996;28;20470;-51
2024/01/10 00:06:23;;;;;;;10.05;4.25;;;;;;;3.18;91.05;102766.56;5066616;28;20506;-51
2024/01/10 00:08:50;;;;;;;12.50;2.35;;;;;;;3.17;90.78;102773.09;5066751;28;20044;-49
2024/01/10 00:11:18;;;;;;;12.48;2.53;;;;;;;3.15;90.68;102756.09;5055589;28;20075;-53
2024/01/10 00:13:45;;;;;;;8.05;2.15;;;;;;;3.12;91.13;102762.06;5067086;28;20056;-50
2024/01/10 00:16:13;;;;;;;6.55;1.73;;;;;;;3.11;90.65;102754.91;5065296;28;20059;-48
2024/01/10 00:18:41;;;;;;;7.25;1.42;;;;;;;3.12;91.20;102745.66;5067133;28;20052;-48
2024/01/10 00:21:09;;;;;;;8.15;2.75;;;;;;;3.11;90.86;102744.81;5052675;28;20537;-52
2024/01/10 00:23:37;;;;;;;7.15;2.85;;;;;;;3.11;90.64;102749.44;5066360;28;20064;-53
2024/01/10 00:26:06;;;;;;;6.00;3.95;;;;;;;3.13;90.65;102752.75;5067403;28;20822;-51
2024/01/10 00:28:33;;;;;;;5.53;1.27;;;;;;;3.11;90.88;102753.03;5066836;28;20041;-48
2024/01/10 00:31:01;;;;;;;3.70;1.23;;;;;;;3.11;90.54;102752.19;5048310;28;20049;-54
2024/01/10 00:33:28;;;;;;;10.25;1.38;;;;;;;3.12;90.69;102740.19;5066658;28;20061;-53
2024/01/10 00:35:55;;;;;;;7.43;2.88;;;;;;;3.12;90.30;102746.47;5067594;28;20041;-50
2024/01/10 00:38:23;;;;;;;12.30;2.25;;;;;;;3.12;90.64;102740.19;5066309;28;20052;-49
2024/01/10 00:40:50;;;;;;;8.88;1.92;;;;;;;3.10;90.16;102751.34;5066825;28;20044;-51
2024/01/10 00:43:17;;;;;;;6.60;1.90;;;;;;;3.09;90.34;102746.97;5052578;28;20045;-49
2024/01/10 00:45:45;;;;;;;3.63;1.38;;;;;;;3.07;90.34;102741.72;5067001;28;20049;-48
2024/01/10 00:48:17;;;;;;;9.20;2.17;;;;;;;3.06;90.24;102739.25;5066907;28;20135;-50
2024/01/10 00:50:45;;;;;;;7.28;1.80;;;;;;;3.08;90.59;102735.19;5066857;28;20044;-50
2024/01/10 00:53:13;;;;;;;4.68;1.70;;;;;;;3.06;90.40;102736.50;5065868;28;20047;-52
2024/01/10 00:55:40;;;;;;;6.38;1.65;;;;;;;3.05;90.01;102735.69;5062748;28;20047;-52
2024/01/10 00:58:08;;;;;;;8.13;1.98;;;;;;;3.04;90.34;102742.22;5066587;28;20044;-49
2024/01/10 01:00:35;;;;;;;4.22;2.03;;;;;;;3.04;90.20;102741.41;5066834;28;20052;-51
2024/01/10 01:03:03;;;;;;;16.20;2.90;;;;;;;3.02;90.68;102735.34;5067556;28;20045;-49
2024/01/10 01:05:30;;;;;;;7.65;1.80;;;;;;;3.03;90.63;102740.56;5070391;28;20052;-48
2024/01/10 01:07:58;;;;;;;11.15;3.35;;;;;;;3.02;90.43;102733.44;5056703;28;20418;-52
2024/01/10 01:10:26;;;;;;;9.50;2.10;;;;;;;3.01;90.32;102733.69;5064360;28;20479;-48
2024/01/10 01:12:54;;;;;;;10.20;2.88;;;;;;;2.98;90.32;102729.53;5069681;28;20036;-47
2024/01/10 01:15:21;;;;;;;5.57;1.70;;;;;;;2.97;90.60;102735.25;5069711;28;20057;-52
2024/01/10 01:17:48;;;;;;;11.65;1.90;;;;;;;2.97;90.33;102732.50;5054995;28;20037;-51
2024/01/10 01:20:16;;;;;;;9.13;1.20;;;;;;;2.97;90.68;102727.88;5068723;28;20049;-46
2024/01/10 01:22:43;;;;;;;7.85;1.48;;;;;;;3.00;90.32;102724.66;5065763;28;20055;-48
2024/01/10 01:25:11;;;;;;;4.97;2.17;;;;;;;3.00;90.52;102719.19;5069343;28;20048;-50
2024/01/10 01:27:38;;;;;;;6.25;1.60;;;;;;;3.03;90.21;102720.59;5068857;28;20047;-47
2024/01/10 01:30:06;;;;;;;11.10;1.65;;;;;;;3.01;90.38;102706.34;5068475;28;20410;-50
2024/01/10 01:32:33;;;;;;;1.80;0.85;;;;;;;3.01;90.28;102704.44;5065103;28;20052;-50
2024/01/10 01:35:01;;;;;;;3.88;1.30;;;;;;;3.02;90.42;102708.81;5068646;28;20036;-45
2024/01/10 01:37:29;;;;;;;7.18;1.95;;;;;;;3.03;90.14;102715.13;5068462;28;20041;-48
2024/01/10 01:39:56;;;;;;;5.47;0.98;;;;;;;3.02;90.12;102733.44;5068698;28;20123;-48
2024/01/10 01:42:24;;;;;;;5.60;1.38;;;;;;;3.01;90.32;102720.84;5069479;28;20032;-49
2024/01/10 01:44:51;;;;;;;7.82;1.92;;;;;;;3.02;89.95;102724.38;5068521;28;20052;-48
2024/01/10 01:47:19;;;;;;;6.15;1.75;;;;;;;3.02;89.87;102722.50;5050602;28;20048;-46
2024/01/10 01:49:47;;;;;;;14.48;1.50;;;;;;;3.04;90.07;102725.81;5057833;28;20064;-50
2024/01/10 01:52:15;;;;;;;10.65;2.00;;;;;;;3.03;90.02;102728.78;5068926;28;20051;-49
2024/01/10 01:54:46;;;;;;;4.07;1.70;;;;;;;3.04;90.26;102727.72;5068175;28;20060;-46
2024/01/10 01:57:14;;;;;;;4.90;1.63;;;;;;;3.03;90.08;102732.38;5061701;28;20040;-45
2024/01/10 01:59:41;;;;;;;3.35;1.58;;;;;;;3.03;90.44;102737.00;5066396;28;20632;-46
2024/01/10 02:02:09;;;;;;;7.85;2.53;;;;;;;3.04;90.36;102742.22;5068331;28;20052;-46
2024/01/10 02:04:36;;;;;;;7.90;1.83;;;;;;;3.04;90.15;102750.44;5067378;28;20044;-48
2024/01/10 02:07:04;;;;;;;5.07;1.85;;;;;;;3.01;90.66;102748.22;5066915;28;20033;-46
2024/01/10 02:09:31;;;;;;;7.22;1.90;;;;;;;2.99;90.36;102741.31;5068460;28;20562;-47
2024/01/10 02:12:03;;;;;;;4.13;1.90;;;;;;;2.97;90.15;102752.50;5066660;28;20045;-52
2024/01/10 02:14:30;;;;;;;4.30;1.80;;;;;;;2.97;90.40;102754.41;5058744;28;20128;-45
2024/01/10 02:16:58;;;;;;;11.35;1.33;;;;;;;2.97;90.89;102749.75;5049236;28;20036;-50
2024/01/10 02:19:27;;;;;;;10.60;1.88;;;;;;;3.01;91.05;102750.09;5068133;28;20641;-46
2024/01/10 02:21:56;;;;;;;3.92;1.48;;;;;;;3.02;90.62;102755.31;5067816;28;20410;-46
2024/01/10 02:24:23;;;;;;;4.88;1.23;;;;;;;3.04;90.89;102755.91;5066157;28;20044;-48
2024/01/10 02:26:50;;;;;;;9.02;1.63;;;;;;;3.06;90.80;102753.78;5064825;28;20040;-46
2024/01/10 02:29:18;;;;;;;3.83;1.17;;;;;;;3.07;91.02;102760.88;5067524;28;20533;-46
2024/01/10 02:31:45;;;;;;;7.32;1.20;;;;;;;3.08;90.84;102751.59;5067297;28;20048;-45
2024/01/10 02:34:12;;;;;;;2.00;1.38;;;;;;;3.12;91.05;102740.19;5067356;28;20044;-46
2024/01/10 02:36:40;;;;;;;7.30;3.42;;;;;;;3.17;91.17;102734.78;5067073;28;20045;-45
2024/01/10 02:39:07;;;;;;;6.63;1.45;;;;;;;3.21;90.79;102738.69;5067420;28;20044;-47
2024/01/10 02:41:34;;;;;;;4.70;1.20;;;;;;;3.21;91.21;102742.25;5066897;28;20052;-46
2024/01/10 02:44:02;;;;;;;5.93;1.73;;;;;;;3.19;91.14;102725.25;5060763;28;20093;-50
2024/01/10 02:46:29;;;;;;;5.93;1.30;;;;;;;3.19;91.02;102729.88;5068149;28;20132;-46
2024/01/10 02:48:57;;;;;;;10.27;2.25;;;;;;;3.16;90.82;102731.22;5067268;28;20058;-51
2024/01/10 02:51:28;;;;;;;3.50;1.10;;;;;;;3.18;90.93;102731.00;5066958;28;20314;-49
2024/01/10 02:53:55;;;;;;;7.28;1.52;;;;;;;3.18;90.91;102728.25;5066603;28;20045;-46
2024/01/10 02:56:22;;;;;;;5.28;1.70;;;;;;;3.17;90.40;102732.06;5063705;28;20490;-46
2024/01/10 02:58:50;;;;;;;5.55;1.92;;;;;;;3.17;90.68;102732.88;5066679;28;20080;-50
2024/01/10 03:01:17;;;;;;;4.07;1.40;;;;;;;3.19;90.50;102738.09;5133064;22;20052;-47
2024/01/10 03:03:45;;;;;;;5.05;1.40;;;;;;;3.17;90.81;102743.84;5065789;28;20063;-49
2024/01/10 03:06:12;;;;;;;4.30;1.13;;;;;;;3.16;90.73;102730.38;5066212;28;20548;-47
2024/01/10 03:08:39;;;;;;;8.82;1.30;;;;;;;3.14;90.89;102748.97;5064185;28;20052;-52
2024/01/10 03:11:07;;;;;;;5.72;1.10;;;;;;;3.15;90.71;102734.22;5067406;28;20040;-49
2024/01/10 03:13:34;;;;;;;11.18;1.15;;;;;;;3.14;90.67;102743.50;5066429;28;20048;-51
2024/01/10 03:16:01;;;;;;;6.82;1.35;;;;;;;3.12;90.91;102740.19;5061328;28;20040;-47
2024/01/10 03:18:29;;;;;;;6.95;1.45;;;;;;;3.12;90.73;102741.00;5066460;28;20048;-52
2024/01/10 03:20:57;;;;;;;5.45;1.92;;;;;;;3.11;90.98;102739.34;5065773;28;20044;-47
2024/01/10 03:23:25;;;;;;;9.85;1.33;;;;;;;3.11;91.07;102738.50;5066631;28;20048;-48
2024/01/10 03:25:52;;;;;;;6.30;2.22;;;;;;;3.11;91.18;102741.25;5065794;28;20056;-51
2024/01/10 03:28:19;;;;;;;5.32;1.30;;;;;;;3.12;91.28;102742.91;5048112;28;20044;-53
2024/01/10 03:30:47;;;;;;;5.60;1.60;;;;;;;3.15;91.25;102736.94;5066634;28;20051;-51
2024/01/10 03:33:15;;;;;;;4.13;1.23;;;;;;;3.15;91.26;102743.22;5049095;28;20048;-51
2024/01/10 03:35:43;;;;;;;5.82;1.38;;;;;;;3.15;91.34;102739.69;5066359;28;20122;-47
2024/01/10 03:38:11;;;;;;;5.55;1.13;;;;;;;3.16;91.27;102746.81;5066026;28;20055;-52
2024/01/10 03:40:38;;;;;;;4.50;0.77;;;;;;;3.16;91.53;102746.81;5062085;28;20139;-52
2024/01/10 03:43:05;;;;;;;5.50;1.45;;;;;;;3.19;91.37;102741.66;5049165;28;20044;-53
2024/01/10 03:45:33;;;;;;;4.68;0.80;;;;;;;3.24;91.46;102751.88;5063862;28;20041;-47
2024/01/10 03:48:00;;;;;;;3.88;1.13;;;;;;;3.24;91.37;102744.50;5065905;28;20557;-49
2024/01/10 03:50:27;;;;;;;2.60;0.70;;;;;;;3.27;91.42;102748.63;5065400;28;20048;-52
2024/01/10 03:52:55;;;;;;;4.25;1.45;;;;;;;3.28;91.49;102747.56;5060873;28;20037;-47
2024/01/10 03:55:22;;;;;;;5.30;1.08;;;;;;;3.28;91.08;102751.16;5066345;28;20501;-52
2024/01/10 03:57:49;;;;;;;2.60;1.15;;;;;;;3.30;91.01;102756.38;5063546;28;20064;-49
2024/01/10 04:00:17;;;;;;;4.95;1.13;;;;;;;3.30;91.51;102757.19;5066214;28;20041;-49
2024/01/10 04:02:45;;;;;;;8.88;1.20;;;;;;;3.32;91.43;102751.47;5066016;28;20092;-49
2024/01/10 04:05:13;;;;;;;13.00;1.20;;;;;;;3.34;91.53;102752.03;5066818;28;20059;-52
2024/01/10 04:07:44;;;;;;;4.90;1.15;;;;;;;3.34;91.40;102760.25;5060494;28;20044;-53
2024/01/10 04:10:14;;;;;;;5.72;1.27;;;;;;;3.35;91.43;102757.28;5065972;28;20052;-51
2024/01/10 04:12:43;;;;;;;4.70;1.20;;;;;;;3.35;91.50;102742.75;5060322;28;20045;-52
2024/01/10 04:15:11;;;;;;;10.27;1.95;;;;;;;3.36;91.40;102747.16;5066601;28;20055;-51
2024/01/10 04:17:40;;;;;;;5.45;1.40;;;;;;;3.38;91.81;102745.84;5066864;28;20058;-50
2024/01/10 04:20:09;;;;;;;4.50;0.90;;;;;;;3.39;91.92;102741.19;5066700;28;20046;-53
2024/01/10 04:22:36;;;;;;;6.50;0.90;;;;;;;3.39;91.58;102733.00;5065125;28;20056;-49
2024/01/10 04:25:07;;;;;;;8.23;0.90;;;;;;;3.41;91.61;102733.56;5059337;28;20093;-52
2024/01/10 04:27:34;;;;;;;4.90;1.00;;;;;;;3.41;91.94;102728.91;5047509;28;20044;-49
2024/01/10 04:30:01;;;;;;;2.45;0.98;;;;;;;3.39;91.96;102719.28;5066563;28;20040;-54
2024/01/10 04:32:29;;;;;;;4.90;1.15;;;;;;;3.40;91.77;102719.03;5065716;28;20375;-51
2024/01/10 04:34:56;;;;;;;14.13;3.28;;;;;;;3.41;91.94;102726.19;5065717;28;20044;-47
2024/01/10 04:37:26;;;;;;;4.90;1.60;;;;;;;3.41;91.76;102736.28;5065364;28;20048;-49
2024/01/10 04:39:53;;;;;;;5.20;1.90;;;;;;;3.38;91.81;102732.16;5068227;28;20071;-50
2024/01/10 04:42:20;;;;;;;6.57;0.93;;;;;;;3.40;92.08;102735.47;5070325;28;20041;-49
2024/01/10 04:44:47;;;;;;;3.50;1.08;;;;;;;3.42;92.26;102733.28;5069451;28;20045;-53
2024/01/10 04:47:15;;;;;;;6.03;0.98;;;;;;;3.43;92.30;102734.13;5069755;28;20041;-51
2024/01/10 04:49:43;;;;;;;2.22;0.98;;;;;;;3.43;92.01;102737.72;5051264;28;20528;-49
2024/01/10 04:52:10;;;;;;;4.32;0.80;;;;;;;3.45;92.19;102735.53;5051550;28;20048;-52
2024/01/10 04:54:39;;;;;;;5.60;0.90;;;;;;;3.47;92.07;102727.06;5069756;28;20049;-53
2024/01/10 04:57:07;;;;;;;6.75;1.98;;;;;;;3.47;92.64;102729.81;5068697;28;20448;-54
2024/01/10 04:59:34;;;;;;;5.80;1.65;;;;;;;3.51;92.62;102733.72;5069011;28;20528;-51
2024/01/10 05:02:02;;;;;;;2.95;0.80;;;;;;;3.53;92.67;102726.06;5069928;28;20048;-53
2024/01/10 05:04:29;;;;;;;2.17;0.80;;;;;;;3.51;92.36;102729.06;5069142;28;20045;-50
2024/01/10 05:06:56;;;;;;;1.08;0.73;;;;;;;3.51;92.62;102725.50;5069540;28;20052;-49
2024/01/10 05:09:24;;;;;;;10.75;0.88;;;;;;;3.51;92.69;102717.28;5050196;28;20044;-48
2024/01/10 05:11:52;;;;;;;2.78;0.65;;;;;;;3.53;92.79;102715.13;5064640;28;20049;-49
2024/01/10 05:14:19;;;;;;;10.95;1.15;;;;;;;3.55;92.61;102718.44;5049567;28;20045;-49
2024/01/10 05:16:50;;;;;;;5.32;1.02;;;;;;;3.56;92.80;102720.09;5069322;28;20044;-53
2024/01/10 05:19:17;;;;;;;5.63;1.48;;;;;;;3.59;92.37;102719.59;5069503;28;20041;-49
2024/01/10 05:21:44;;;;;;;4.03;1.55;;;;;;;3.60;92.88;102715.78;5070369;28;20087;-49
2024/01/10 05:24:12;;;;;;;2.38;0.47;;;;;;;3.62;92.64;102719.09;5067983;28;20037;-51
2024/01/10 05:26:39;;;;;;;5.07;0.68;;;;;;;3.65;92.76;102729.56;5069260;28;20048;-51
2024/01/10 05:29:07;;;;;;;4.07;0.70;;;;;;;3.67;92.76;102719.19;5069202;28;20040;-51
2024/01/10 05:31:35;;;;;;;2.97;0.70;;;;;;;3.69;92.80;102737.03;5069846;28;20044;-52
2024/01/10 05:34:02;;;;;;;5.25;1.30;;;;;;;3.71;92.96;102733.22;5063880;28;20055;-48
2024/01/10 05:36:29;;;;;;;8.55;1.13;;;;;;;3.73;92.88;102728.31;5060550;28;20044;-51
2024/01/10 05:38:57;;;;;;;7.18;1.35;;;;;;;3.75;92.83;102723.41;5068372;28;20769;-50
2024/01/10 05:41:24;;;;;;;1.50;0.57;;;;;;;3.77;93.19;102724.81;5068915;28;20517;-49
2024/01/10 05:43:52;;;;;;;5.15;0.80;;;;;;;3.80;93.14;102732.53;5068845;28;20044;-50
2024/01/10 05:46:19;;;;;;;6.88;1.33;;;;;;;3.81;93.03;102731.47;5068845;28;20044;-53
2024/01/10 05:48:48;;;;;;;5.82;0.98;;;;;;;3.83;93.25;102732.03;5068913;28;20425;-49
2024/01/10 05:51:15;;;;;;;4.57;1.00;;;;;;;3.83;93.38;102721.06;5068732;28;20056;-51
2024/01/10 05:53:44;;;;;;;4.75;0.93;;;;;;;3.84;93.17;102717.22;5064146;28;20041;-52
2024/01/10 05:56:12;;;;;;;9.15;2.55;;;;;;;3.85;93.43;102713.41;5063910;28;20048;-48
2024/01/10 05:58:40;;;;;;;3.15;1.55;;;;;;;3.87;93.24;102715.88;5069333;28;20048;-53
2024/01/10 06:01:09;;;;;;;7.50;0.70;;;;;;;3.86;93.15;102715.09;5068839;28;20048;-53
2024/01/10 06:03:38;;;;;;;7.40;0.75;;;;;;;3.86;93.36;102712.34;5068917;28;20055;-53
2024/01/10 06:06:06;;;;;;;5.55;0.47;;;;;;;3.88;93.50;102715.66;5046853;28;20049;-52
2024/01/10 06:08:35;;;;;;;4.53;0.77;;;;;;;3.88;93.39;102721.13;5066935;28;20524;-47
2024/01/10 06:11:06;;;;;;;4.65;0.98;;;;;;;3.90;93.56;102727.19;5065653;28;20045;-47
2024/01/10 06:13:33;;;;;;;3.08;0.60;;;;;;;3.91;93.47;102719.81;5068049;28;20047;-48
2024/01/10 06:16:16;;;;;;;5.40;0.75;;;;;;;3.90;93.42;102727.19;5068474;28;20051;-50
2024/01/10 06:18:44;;;;;;;3.03;0.60;;;;;;;3.94;93.70;102713.81;5065611;28;20048;-50
2024/01/10 06:21:11;;;;;;;3.17;0.63;;;;;;;3.95;93.47;102710.81;5068521;28;20048;-49
2024/01/10 06:23:38;;;;;;;4.82;1.00;;;;;;;3.95;93.45;102713.56;5060704;28;20036;-50
2024/01/10 06:26:06;;;;;;;3.35;0.70;;;;;;;3.95;93.48;102713.56;5056414;28;20045;-50
2024/01/10 06:28:34;;;;;;;5.60;0.60;;;;;;;3.97;93.30;102714.13;5066201;28;20493;-49
2024/01/10 06:31:02;;;;;;;1.33;0.73;;;;;;;3.97;93.31;102707.84;5062358;28;20052;-49
2024/01/10 06:33:30;;;;;;;4.72;0.47;;;;;;;3.99;93.08;102714.72;5068030;28;20481;-47
2024/01/10 06:35:58;;;;;;;2.63;0.47;;;;;;;3.98;93.33;102702.09;5061798;28;20040;-54
2024/01/10 06:38:25;;;;;;;5.82;0.55;;;;;;;3.97;93.13;102708.63;5068145;28;20048;-48
2024/01/10 06:40:53;;;;;;;0.52;0.30;;;;;;;3.97;93.01;102700.41;5043434;28;20414;-50
2024/01/10 06:43:20;;;;;;;1.23;0.47;;;;;;;3.98;93.21;102702.09;5045201;28;20452;-48
2024/01/10 06:45:48;;;;;;;5.07;0.52;;;;;;;4.02;93.04;102705.16;5067175;28;20063;-46
2024/01/10 06:48:15;;;;;;;4.72;0.65;;;;;;;4.01;93.33;102696.09;5066631;28;20060;-47
2024/01/10 06:50:44;;;;;;;1.00;0.30;;;;;;;4.03;93.07;102695.84;5045597;28;20049;-45
2024/01/10 06:53:12;;;;;;;3.30;0.75;;;;;;;4.01;92.83;102717.19;5065188;28;20044;-46
2024/01/10 06:55:40;;;;;;;9.45;1.25;;;;;;;3.98;93.17;102718.53;5067263;28;20040;-46
2024/01/10 06:58:07;;;;;;;4.25;0.70;;;;;;;3.97;93.03;102724.28;5065939;28;20044;-46
2024/01/10 07:00:34;;;;;;;2.20;0.60;;;;;;;3.96;93.01;102720.69;5066931;28;20041;-51
2024/01/10 07:03:02;;;;;;;1.75;0.80;;;;;;;3.96;92.92;102717.97;5067563;28;20111;-48
2024/01/10 07:05:31;;;;;;;3.55;0.38;;;;;;;4.00;93.07;102732.81;5066032;28;20047;-50
2024/01/10 07:08:02;;;;;;;5.43;0.60;;;;;;;4.01;93.12;102734.47;5066880;28;20736;-50
2024/01/10 07:10:30;;;;;;;4.10;0.47;;;;;;;4.02;92.85;102727.94;5067742;28;20052;-49
2024/01/10 07:12:57;;;;;;;8.57;1.02;;;;;;;4.05;92.90;102723.84;5066359;28;20048;-50
2024/01/10 07:15:25;;;;;;;6.13;0.95;;;;;;;4.05;93.26;102710.13;5067143;28;20762;-51
2024/01/10 07:17:53;;;;;;;6.63;1.08;;;;;;;4.05;92.78;102713.69;5065860;28;20048;-51
2024/01/10 07:20:20;;;;;;;3.55;0.60;;;;;;;4.06;92.86;102723.56;5066853;28;20521;-50
2024/01/10 07:22:49;;;;;;;2.15;0.77;;;;;;;4.06;93.07;102737.28;5068041;28;20060;-49
2024/01/10 07:25:17;;;;;;;5.18;0.70;;;;;;;4.09;93.22;102725.81;5047621;28;20076;-53
2024/01/10 07:27:44;;;;;;;0.50;0.40;;;;;;;4.12;93.23;102743.66;5064235;28;20049;-48
2024/01/10 07:30:14;;;;;;;1.80;1.02;;;;;;;4.11;93.11;102734.59;5065970;28;20040;-50
2024/01/10 07:32:43;;;;;;;5.13;0.70;;;;;;;4.14;93.15;102736.84;5064315;28;20422;-52
2024/01/10 07:35:15;;;;;;;4.07;0.63;;;;;;;4.16;93.45;102737.41;5067191;28;20076;-48
2024/01/10 07:37:43;;;;;;;10.88;1.17;;;;;;;4.18;93.53;102740.72;5063927;28;20051;-50
2024/01/10 07:40:11;;;;;;;5.25;1.42;;;;;;;4.19;93.45;102728.69;5065132;28;20406;-49
2024/01/10 07:42:39;;;;;;;4.00;0.57;;;;;;;4.19;93.52;102720.47;5066232;28;20044;-51
2024/01/10 07:45:07;;;;;;;2.72;0.90;;;;;;;4.22;93.28;102724.59;5065729;28;20051;-52
2024/01/10 07:47:39;;;;;;;1.98;0.65;;;;;;;4.23;93.22;102732.59;5065893;28;20056;-50
2024/01/10 07:50:08;;;;;;;1.48;0.40;;;;;;;4.22;93.28;102732.84;5048288;28;20051;-55
2024/01/10 07:52:36;;;;;;;3.92;0.40;;;;;;;4.23;93.05;102732.59;5066634;28;20040;-47
2024/01/10 07:55:04;;;;;;;1.55;0.40;;;;;;;4.26;93.04;102734.78;5065018;28;20387;-49
2024/01/10 07:57:36;;;;;;;0.63;0.32;;;;;;;4.28;93.31;102738.13;5066788;28;20048;-54
2024/01/10 08:00:10;;;;;;;1.63;0.85;;;;;;;4.28;93.09;102732.66;5066113;28;20048;-49
2024/01/10 08:02:38;;;;;;;3.58;0.82;;;;;;;4.29;93.00;102731.56;5066403;28;20053;-51
2024/01/10 08:05:10;;;;;;;1.27;0.57;;;;;;;4.31;93.16;102734.06;5066533;28;20079;-52
2024/01/10 08:07:38;;;;;;;6.55;0.65;;;;;;;4.32;93.04;102731.03;5062575;28;20055;-48
2024/01/10 08:10:08;;;;;;;3.10;0.70;;;;;;;4.32;92.93;102739.28;5061738;28;20056;-50
2024/01/10 08:12:38;;;;;;;0.30;0.28;;;;;;;4.34;92.87;102733.56;5068989;28;20041;-51
2024/01/10 08:15:08;;;;;;;7.82;0.77;;;;;;;4.35;92.47;102743.41;5071361;28;20052;-47
2024/01/10 08:17:39;;;;;;;2.33;0.50;;;;;;;4.37;92.49;102732.22;5065739;28;20040;-47
2024/01/10 08:20:08;;;;;;;0.68;0.28;;;;;;;4.38;92.28;102734.69;5066876;28;20044;-52
2024/01/10 08:22:37;;;;;;;0.55;0.30;;;;;;;4.39;92.58;102746.50;5067760;28;20402;-47
2024/01/10 08:25:05;;;;;;;4.10;0.73;;;;;;;4.38;92.85;102744.81;5070955;28;20047;-52
2024/01/10 08:27:35;;;;;;;0.70;0.40;;;;;;;4.39;92.56;102754.72;5064357;28;20052;-51
2024/01/10 08:30:04;;;;;;;2.83;0.75;;;;;;;4.40;92.64;102753.59;5065893;28;20057;-48
2024/01/10 08:32:33;;;;;;;4.13;0.75;;;;;;;4.39;92.65;102754.72;5068943;28;20044;-51
2024/01/10 08:35:00;;;;;;;3.50;0.40;;;;;;;4.40;92.27;102757.19;5066709;28;20052;-48
2024/01/10 08:37:28;;;;;;;3.20;0.57;;;;;;;4.43;92.11;102758.59;5066099;28;20063;-53
2024/01/10 08:39:55;;;;;;;0.70;0.40;;;;;;;4.46;91.92;102749.84;5071278;28;20044;-50
2024/01/10 08:42:22;;;;;;;1.58;1.20;;;;;;;4.46;91.62;102747.13;5070074;28;20041;-53
2024/01/10 08:44:50;;;;;;;3.35;1.52;;;;;;;4.47;91.77;102743.28;5069814;28;20045;-51
2024/01/10 08:47:17;;;;;;;3.15;2.08;;;;;;;4.47;91.83;102744.13;5066753;28;20049;-52
2024/01/10 08:49:45;;;;;;;8.82;3.75;;;;;;;4.48;91.88;102758.66;5067517;28;20056;-48
2024/01/10 08:52:13;;;;;;;10.38;3.67;;;;;;;4.47;91.73;102770.72;5062630;28;20057;-53
2024/01/10 08:54:40;;;;;;;7.68;1.63;;;;;;;4.47;91.83;102770.72;5070633;28;20405;-50
2024/01/10 08:57:08;;;;;;;2.55;1.10;;;;;;;4.49;91.96;102765.81;5067325;28;20052;-51
2024/01/10 08:59:35;;;;;;;10.73;3.25;;;;;;;4.51;92.10;102766.38;5068419;28;20398;-50
2024/01/10 09:02:03;;;;;;;4.20;1.73;;;;;;;4.52;91.78;102765.31;5050113;28;20048;-54
2024/01/10 09:04:30;;;;;;;3.40;1.00;;;;;;;4.54;91.99;102771.34;5069162;28;20053;-49
2024/01/10 09:06:59;;;;;;;3.22;0.93;;;;;;;4.55;92.29;102770.28;5065947;28;20053;-51
2024/01/10 09:09:27;;;;;;;2.17;1.20;;;;;;;4.56;92.36;102772.75;5061653;28;20036;-52
2024/01/10 09:11:54;;;;;;;3.42;1.08;;;;;;;4.59;92.13;102774.16;5063408;28;20530;-50
2024/01/10 09:14:22;;;;;;;3.60;1.30;;;;;;;4.62;92.17;102773.66;5069093;28;20040;-52
2024/01/10 09:16:49;;;;;;;3.00;0.75;;;;;;;4.63;92.28;102772.56;5066260;28;20052;-51
2024/01/10 09:19:18;;;;;;;5.18;0.50;;;;;;;4.65;92.29;102767.66;5020319;28;20044;-51
2024/01/10 09:21:45;;;;;;;2.17;1.38;;;;;;;4.67;92.11;102773.69;5051646;28;20057;-52
2024/01/10 09:24:14;;;;;;;3.40;0.55;;;;;;;4.71;92.16;102769.38;5065363;28;20044;-50
2024/01/10 09:26:55;;;;;;;1.02;0.28;;;;;;;4.73;92.07;102762.53;5064952;28;20131;-54
2024/01/10 09:29:25;;;;;;;2.83;0.52;;;;;;;4.76;91.87;102769.44;5068876;28;20045;-48
2024/01/10 09:31:53;;;;;;;0.98;0.20;;;;;;;4.81;91.91;102777.72;5066555;28;20056;-52
2024/01/10 09:34:20;;;;;;;0.70;0.47;;;;;;;4.82;92.04;102774.72;5068926;28;20053;-49
2024/01/10 09:36:48;;;;;;;5.90;0.88;;;;;;;4.84;91.70;102779.94;5065825;28;20044;-49
2024/01/10 09:39:16;;;;;;;3.72;0.73;;;;;;;4.85;91.80;102787.91;5058199;28;20048;-52
2024/01/10 09:41:50;;;;;;;1.92;0.70;;;;;;;4.85;91.90;102776.09;5065358;28;20049;-53
2024/01/10 09:44:17;;;;;;;3.25;0.82;;;;;;;4.86;91.73;102792.34;5068656;28;20049;-52
2024/01/10 09:46:49;;;;;;;6.15;1.38;;;;;;;4.86;92.13;102784.09;5068335;28;20059;-51
2024/01/10 09:49:17;;;;;;;5.07;1.90;;;;;;;4.89;92.07;102786.34;5068162;28;20052;-50
2024/01/10 09:51:47;;;;;;;6.00;2.38;;;;;;;4.91;92.12;102788.81;5067949;28;20056;-49
2024/01/10 09:54:16;;;;;;;5.38;1.60;;;;;;;4.94;91.94;102791.03;5067924;28;20032;-52
2024/01/10 09:56:45;;;;;;;3.80;1.30;;;;;;;4.93;92.26;102789.38;5068177;28;20072;-50
2024/01/10 09:59:12;;;;;;;4.57;1.17;;;;;;;4.97;91.86;102782.28;5068408;28;20048;-50
2024/01/10 10:01:40;;;;;;;5.28;1.10;;;;;;;4.98;92.29;102778.44;5061211;28;20477;-52
2024/01/10 10:04:11;;;;;;;2.58;1.10;;;;;;;5.00;92.26;102792.75;5061548;28;20057;-50
2024/01/10 10:06:38;;;;;;;5.60;1.30;;;;;;;5.01;92.14;102790.81;5066606;28;20048;-56
2024/01/10 10:09:08;;;;;;;5.25;1.98;;;;;;;5.00;92.19;102784.53;5058839;28;20529;-51
2024/01/10 10:11:35;;;;;;;9.88;2.40;;;;;;;5.02;92.30;102787.84;5067519;28;20742;-51
2024/01/10 10:14:16;;;;;;;5.10;1.70;;;;;;;5.03;92.34;102789.47;5068272;28;20048;-55
2024/01/10 10:16:44;;;;;;;7.10;2.25;;;;;;;5.07;92.51;102787.06;5068131;28;20044;-49
2024/01/10 10:19:13;;;;;;;0.55;0.50;;;;;;;5.09;92.33;102785.69;5050597;28;20465;-50
2024/01/10 10:21:51;;;;;;;6.28;1.05;;;;;;;5.14;92.44;102794.00;5068307;28;20519;-48
2024/01/10 10:24:18;;;;;;;1.00;0.50;;;;;;;5.17;92.17;102787.97;5067749;28;20044;-53
2024/01/10 10:26:51;;;;;;;1.13;0.32;;;;;;;5.22;91.82;102784.44;5050705;28;20048;-50
2024/01/10 10:29:19;;;;;;;2.28;0.65;;;;;;;5.23;91.76;102789.69;5062501;28;20045;-49
2024/01/10 10:31:49;;;;;;;4.43;0.73;;;;;;;5.28;91.82;102808.13;5062560;28;20053;-54
2024/01/10 10:34:22;;;;;;;4.55;0.68;;;;;;;5.29;91.43;102802.41;5050204;28;20139;-48
2024/01/10 10:36:49;;;;;;;;;;;;;;;5.27;91.11;102799.06;5066938;28;20040;-51
2024/01/10 10:39:17;;;;;;;2.47;0.80;;;;;;;5.27;91.01;102785.31;5066823;28;19924;-51
2024/01/10 10:41:49;;;;;;;2.05;0.63;;;;;;;5.23;91.20;102784.22;5065853;28;20445;-54
2024/01/10 10:44:22;;;;;;;2.38;0.47;;;;;;;5.18;90.61;102777.84;5063330;28;20033;-50
2024/01/10 10:46:52;;;;;;;;;;;;;;;5.12;90.58;102785.19;5067830;28;20461;-48
2024/01/10 10:49:52;;;;;;;1.73;0.43;;;;;;;5.06;90.49;102786.22;5067142;28;20282;-48
2024/01/10 10:52:22;;;;;;;0.68;0.60;;;;;;;5.07;90.63;102787.88;5050907;28;20051;-50
2024/01/10 10:54:54;;;;;;;3.03;0.20;;;;;;;5.12;90.63;102789.84;5048517;28;20063;-54
2024/01/10 10:57:25;;;;;;;3.05;0.65;;;;;;;5.20;90.57;102798.44;5066148;28;20418;-51
2024/01/10 10:59:55;;;;;;;1.95;0.30;;;;;;;5.26;90.81;102785.59;5068232;28;20065;-48
2024/01/10 11:02:23;;;;;;;1.15;0.30;;;;;;;5.32;90.71;102785.38;5065959;28;20540;-49
2024/01/10 11:04:58;;;;;;;2.83;0.40;;;;;;;5.36;90.67;102802.16;5064887;28;20505;-50
2024/01/10 11:07:27;;;;;;;1.40;0.25;;;;;;;5.35;90.81;102793.09;5067377;28;20533;-53
2024/01/10 11:09:55;;;;;;;3.60;0.30;;;;;;;5.36;90.93;102792.03;5064153;28;20434;-53
2024/01/10 11:12:45;;;;;;;5.00;0.95;;;;;;;5.38;91.13;102792.59;5066014;28;20077;-51
2024/01/10 11:15:24;;;;;;;5.18;0.65;;;;;;;5.38;91.43;102789.00;5066243;28;20052;-53
2024/01/10 11:18:23;;;;;;;3.75;0.47;;;;;;;5.39;91.58;102786.00;5066341;28;20052;-50
2024/01/10 11:21:03;;;;;;;2.78;0.40;;;;;;;5.46;91.42;102789.34;5062745;28;20044;-52
2024/01/10 11:23:39;;;;;;;2.08;0.63;;;;;;;5.56;91.56;102785.06;5054577;28;20047;-51
2024/01/10 11:26:08;;;;;;;2.75;0.70;;;;;;;5.63;91.72;102793.91;5057168;28;20533;-53
2024/01/10 11:28:37;;;;;;;3.53;0.50;;;;;;;5.66;91.50;102787.88;5065926;28;20040;-52
2024/01/10 17:34:59;;;;;;;9.73;3.50;;;;;;;5.30;95.21;102754.59;4113144;28;22839;-54
2024/01/10 17:37:42;;;;;;;11.95;5.05;;;;;;;5.30;95.27;102762.84;5029872;28;20045;-47
2024/01/10 17:40:10;;;;;;;9.65;3.67;;;;;;;5.29;95.36;102758.47;5045235;28;20052;-48
2024/01/10 17:42:37;;;;;;;4.68;1.95;;;;;;;5.28;96.16;102756.78;5038651;28;20057;-48
2024/01/10 17:45:10;;;;;;;2.90;1.80;;;;;;;5.29;96.32;102746.63;5044908;28;20055;-49